Pleasant Hill, Oregon
Current Conditions -  °F | °C
As of 12:54 PM on Wednesday 26 Nov 2014 (Local Time) from KEUG Reporting Station
Overcast Overcast  
Wind Chill: 14°   Ceiling: 25000
Heat Index: 14°   Visibility: 10mi
Dew Point: 10°   Wind: 6mph
Humidity: 75%   Direction: 250°WSW
Pressure: 30.14"   Gusts: NA
Location:  43.97°N, 122.93°W
Report Text: KEUG 262054Z 25005KT 10SM OVC250 14/10 A3014 RMK AO2 SLP207 T01440100 58015
Loading
Personal Weather Stations






























Interactive Weather Map New forecast layout! Learn more

10-Day Weather Forecast

Advertisements
Track Severe Weather on mobile